Etusivu
METAR-TAF:

METAR-TAF

Lentoasemat :

Wink, Texas, Yhdysvallat

Leveyspiiri: 31-46-47N, Pituuspiiri: 103-12-05W, korkeus merenpinnasta: 860 m

Tämänhetkinen sää

Tämä raportti tehtiin 57 minuuttia sitten, kello 15.53 UTC
tyyntä
Lämpötila 11°C
Kosteus 58%
Ilmanpaine 1016 hPa
Näkyvyys: 16.1 km
selkeää

METAR: KINK 181553Z AUTO 00000KT 10SM CLR 11/03 A3001 RMK AO2 SLP148 T01060033

Aika: 10:50 (16:50 UTC)

Sääennuste

Tämä raportti tehtiin 5 tuntia ja 29 minuuttia sitten, kello 11.21 UTC
Ennuste voimassa 18. päivästä klo 12 UTC - 19. päivään klo 12 UTC
Tuuli 10 kn lännestä
Näkyvyys: 10 km
Muutamia pilviä 25000 ft:n korkeudessa
From 19. päivästä klo 0200 UTC
Tuuli 6 kn pohjoisen/luoteesta
Näkyvyys: 10 km
Muutamia pilviä 25000 ft:n korkeudessa

TAF: KINK 181121Z 1812/1912 26010KT P6SM FEW250 FM190200 34006KT P6SM FEW250

Säähavainnot ja -ennusteet yli 4000 lentoasemalta (METAR- ja TAF-raportit).

Käytössä olevat sääasemat on merkitty karttaan keltaisilla ja punaisilla pisteillä.

Aseta hiiri pisteen päälle nähdäksesi sääaseman nimen.

Klikkaa sitten nähdäksesi säähavainnot ja -ennusteet.

Kartan vaihtaminen: klikkaa mustalla rastilla varustettuja vihreitä pisteitä, niin voit zoomata sisään; viivalla varustettua vihreää pistettä, niin voit zoomata ulos tai vihreitä nuolia, niin pääset viereisille kartoille.


METAR-TAF: